»·PEaware :: N71826 KPSP-KFLG

N71826 :: KPSP-KFLG

FLIGHT INFORMATION

Flight Status: Arrived
Operator: Privately registered:
United States
More flights under this callsign
Pilot: Joe C. (19058)
Aircraft: SOCATA TBM-900
(TBM9)
More flights by this aircraft type
Origin: KPSP Palm Springs Intl
United States
Destination: KFLG Flagstaff Pulliam
United States
More flights between these airports :: More routes between these airports
Route: +CATH1 TNP V208 EED J6 DRK V12 OATES V327 FLG
File this flight plan on PilotEdge
Remarks:
Altitude:
(Current/Filed)
28,000ft
Speed:
(Current/Filed)
320kts
Departed: 04-Nov-18 11:44 AM
Arrived: 04-Nov-18 12:53 PM
Distance/Time
Traveled:
252nm/1:09
Distance/Time
To Go:
Arrived

Flight Plot

Page will automatically refresh every two minutes.

Flight plan parsing failed; only flown route is shown


Map Options




Map Legend


Flown Route
Filed Route
Departure Airport
Arrival Airport
Navaid (VOR, NDB)
Fix

Horizontal Profiles

Position Reports

Time Latitude Longitude Heading Altitude Ground
Speed
04-Nov-18 11:26 33.820278 -116.505684 181 404ft 0kts
04-Nov-18 11:27 33.820278 -116.505684 181 404ft 0kts
04-Nov-18 11:28 33.820278 -116.505684 181 404ft 0kts
04-Nov-18 11:29 33.820278 -116.505684 181 404ft 0kts
04-Nov-18 11:30 33.820278 -116.505684 181 404ft 0kts
04-Nov-18 11:31 33.820278 -116.505684 181 404ft 0kts
04-Nov-18 11:32 33.820278 -116.505684 181 404ft 0kts
04-Nov-18 11:33 33.820278 -116.505684 181 404ft 0kts
04-Nov-18 11:34 33.820278 -116.505684 181 404ft 0kts
04-Nov-18 11:35 33.820278 -116.505684 181 404ft 0kts
04-Nov-18 11:36 33.820278 -116.505684 181 404ft 0kts
04-Nov-18 11:37 33.820278 -116.505684 181 404ft 0kts
04-Nov-18 11:38 33.820278 -116.505684 181 404ft 0kts
04-Nov-18 11:39 33.820278 -116.505684 181 404ft 0kts
04-Nov-18 11:40 33.820278 -116.505684 181 404ft 0kts
04-Nov-18 11:41 33.820278 -116.505684 181 404ft 0kts
04-Nov-18 11:42 33.820487 -116.505704 10 404ft 10kts
04-Nov-18 11:43 33.822623 -116.504899 47 408ft 5kts
04-Nov-18 11:44 33.819471 -116.500604 142 398ft 25kts
04-Nov-18 11:45 33.818474 -116.498986 81 395ft 0kts
04-Nov-18 11:46 33.818496 -116.498849 75 394ft 7kts
04-Nov-18 11:47 33.834826 -116.512134 324 692ft 147kts
04-Nov-18 11:48 33.864583 -116.541563 316 2594ft 130kts
04-Nov-18 11:49 33.893883 -116.566282 2 4593ft 129kts
04-Nov-18 11:50 33.900340 -116.528820 102 6465ft 144kts
04-Nov-18 11:51 33.886453 -116.482394 104 8175ft 152kts
04-Nov-18 11:52 33.871871 -116.433688 83 9761ft 153kts
04-Nov-18 11:53 33.885362 -116.388528 55 11255ft 146kts
04-Nov-18 11:54 33.902007 -116.343370 55 12666ft 150kts
04-Nov-18 11:55 33.920587 -116.292971 55 13794ft 162kts
04-Nov-18 11:55 33.935327 -116.253113 54 15452ft 155kts
04-Nov-18 11:57 33.955872 -116.197409 54 17690ft 159kts
04-Nov-18 11:57 33.970807 -116.156820 54 19243ft 161kts
04-Nov-18 11:59 33.992175 -116.098668 54 21203ft 165kts
04-Nov-18 11:59 34.007833 -116.055963 54 22704ft 169kts
04-Nov-18 12:01 34.030064 -115.995266 54 24747ft 173kts
04-Nov-18 12:01 34.046278 -115.950941 54 26057ft 176kts
04-Nov-18 12:02 34.066400 -115.895962 55 27191ft 197kts
04-Nov-18 12:03 34.091707 -115.826515 57 27201ft 249kts
04-Nov-18 12:04 34.123673 -115.748114 50 27208ft 269kts
04-Nov-18 12:05 34.164014 -115.669020 50 27201ft 283kts
04-Nov-18 12:06 34.205767 -115.587397 50 27196ft 287kts
04-Nov-18 12:07 34.247906 -115.504861 51 27195ft 289kts
04-Nov-18 12:08 34.289959 -115.422302 51 27192ft 289kts
04-Nov-18 12:09 34.332066 -115.339445 51 27161ft 290kts
04-Nov-18 12:10 34.374261 -115.256219 51 27121ft 291kts
04-Nov-18 12:11 34.416532 -115.172638 51 27074ft 291kts
04-Nov-18 12:12 34.458522 -115.089417 50 27073ft 290kts
04-Nov-18 12:13 34.500379 -115.006278 50 27073ft 289kts
04-Nov-18 12:15 34.542227 -114.922993 50 27072ft 289kts
04-Nov-18 12:16 34.583853 -114.839921 50 27072ft 289kts
04-Nov-18 12:17 34.625471 -114.756673 50 27072ft 288kts
04-Nov-18 12:18 34.667019 -114.673367 50 27070ft 288kts
04-Nov-18 12:19 34.708392 -114.590232 50 27069ft 288kts
04-Nov-18 12:20 34.749781 -114.506832 50 27071ft 288kts
04-Nov-18 12:21 34.764089 -114.407373 82 27063ft 313kts
04-Nov-18 12:22 34.761789 -114.301493 83 27046ft 314kts
04-Nov-18 12:23 34.759096 -114.195512 83 27038ft 314kts
04-Nov-18 12:24 34.756299 -114.089376 83 27046ft 314kts
04-Nov-18 12:25 34.753413 -113.983405 83 27060ft 314kts
04-Nov-18 12:26 34.750431 -113.877293 83 27095ft 313kts
04-Nov-18 12:27 34.747370 -113.771558 83 27133ft 314kts
04-Nov-18 12:28 34.744198 -113.665143 83 27145ft 317kts
04-Nov-18 12:29 34.740871 -113.555167 84 26162ft 344kts
04-Nov-18 12:30 34.737078 -113.436132 85 24395ft 359kts
04-Nov-18 12:31 34.733220 -113.319550 85 24133ft 333kts
04-Nov-18 12:32 34.729541 -113.209552 85 24147ft 320kts
04-Nov-18 12:33 34.725859 -113.102119 84 24162ft 316kts
04-Nov-18 12:34 34.722117 -112.995995 84 24170ft 315kts
04-Nov-18 12:35 34.718248 -112.889194 85 24175ft 319kts
04-Nov-18 12:36 34.715773 -112.821881 86 24172ft 322kts
04-Nov-18 12:37 34.711539 -112.708915 87 23017ft 352kts
04-Nov-18 12:38 34.706879 -112.588779 88 21248ft 359kts
04-Nov-18 12:39 34.705069 -112.468028 70 19435ft 353kts
04-Nov-18 12:40 34.730385 -112.354137 70 17676ft 344kts
04-Nov-18 12:41 34.754602 -112.243794 72 15862ft 335kts
04-Nov-18 12:42 34.778219 -112.135618 72 14059ft 330kts
04-Nov-18 12:43 34.800602 -112.032560 73 12266ft 298kts
04-Nov-18 12:44 34.819760 -111.943905 73 11957ft 245kts
04-Nov-18 12:45 34.836328 -111.867065 73 11969ft 230kts
04-Nov-18 12:46 34.852426 -111.792132 72 11971ft 227kts
04-Nov-18 12:47 34.870473 -111.719051 43 11947ft 222kts
04-Nov-18 12:48 34.926553 -111.702301 2 11981ft 211kts
04-Nov-18 12:49 34.979268 -111.674605 29 11998ft 216kts
04-Nov-18 12:50 35.030080 -111.634446 29 11876ft 224kts
04-Nov-18 12:51 35.084116 -111.592228 29 11459ft 228kts
04-Nov-18 12:52 35.138422 -111.573372 351 9583ft 182kts
04-Nov-18 12:53 35.159773 -111.607564 272 7805ft 117kts
04-Nov-18 12:54 35.160538 -111.644216 245 7636ft 101kts
04-Nov-18 12:55 35.143105 -111.666223 214 7014ft 74kts
04-Nov-18 12:56 35.139252 -111.671524 310 7014ft 0kts

Navigation Log

Ident Type
Flight plan parsing failed, navigation log unavailable